Time;durP1;ratioP1;P1;durP2;ratioP2;P2;SDS_P1;SDS_P2;PMS_P1;PMS_P2;Temp;Humidity;BMP_temperature;BMP_pressure;BME280_temperature;BME280_humidity;BME280_pressure;Samples;Min_cycle;Max_cycle;Signal;HPM_P1;HPM_P2
2023/07/08 00:00:53;;;;;;;3.80;3.17;;;17.40;99.90;;;;;;5094696;28;20048;-79
2023/07/08 00:03:20;;;;;;;4.68;3.17;;;17.30;99.90;;;;;;5094708;28;20080;-79
2023/07/08 00:05:47;;;;;;;3.92;2.83;;;17.30;99.90;;;;;;5094630;28;20102;-79
2023/07/08 00:08:18;;;;;;;4.63;2.97;;;17.20;99.90;;;;;;5080680;28;20071;-78
2023/07/08 00:10:44;;;;;;;5.35;3.00;;;17.20;99.90;;;;;;5074486;28;20377;-78
2023/07/08 00:13:10;;;;;;;4.30;2.60;;;17.20;99.90;;;;;;5093151;28;20036;-79
2023/07/08 00:15:37;;;;;;;4.03;2.83;;;17.10;99.90;;;;;;5093433;28;20048;-79
2023/07/08 00:18:17;;;;;;;4.32;2.95;;;17.10;99.90;;;;;;5093902;28;20503;-79
2023/07/08 00:20:50;;;;;;;3.83;2.47;;;17.00;99.90;;;;;;5075392;28;20036;-79
2023/07/08 00:23:16;;;;;;;4.53;2.90;;;17.00;99.90;;;;;;5072832;28;20117;-79
2023/07/08 00:25:42;;;;;;;6.10;3.03;;;16.80;99.90;;;;;;5079372;28;20185;-79
2023/07/08 00:28:15;;;;;;;4.25;3.13;;;16.80;99.90;;;;;;5092915;28;20341;-78
2023/07/08 00:30:41;;;;;;;9.10;3.25;;;16.80;99.90;;;;;;5094215;28;20040;-79
2023/07/08 00:33:07;;;;;;;4.60;2.90;;;16.80;99.90;;;;;;5092990;28;20153;-79
2023/07/08 00:35:39;;;;;;;5.10;2.95;;;16.80;99.90;;;;;;5079913;28;20075;-79
2023/07/08 00:38:19;;;;;;;3.95;2.65;;;16.80;99.90;;;;;;5078643;28;20040;-79
2023/07/08 00:40:59;;;;;;;5.57;2.80;;;16.90;99.90;;;;;;5094108;28;20044;-79
2023/07/08 00:43:38;;;;;;;4.93;2.88;;;16.90;99.90;;;;;;5080002;28;20044;-78
2023/07/08 00:46:29;;;;;;;4.30;2.83;;;16.90;99.90;;;;;;5072730;28;20127;-79
2023/07/08 00:49:07;;;;;;;6.10;3.15;;;16.90;99.90;;;;;;5092110;28;20503;-79
2023/07/08 00:51:34;;;;;;;4.93;3.00;;;16.90;99.90;;;;;;5092787;28;20032;-78
2023/07/08 00:54:01;;;;;;;4.22;2.60;;;16.90;99.90;;;;;;5076531;28;20040;-79
2023/07/08 00:56:43;;;;;;;4.63;2.83;;;16.80;99.90;;;;;;5088065;28;20085;-78
2023/07/08 00:59:22;;;;;;;5.68;3.25;;;16.80;99.90;;;;;;5092721;28;20050;-79
2023/07/08 01:01:49;;;;;;;4.57;3.13;;;16.70;99.90;;;;;;5092883;28;20127;-79
2023/07/08 01:04:44;;;;;;;4.85;3.10;;;16.80;99.90;;;;;;5089352;28;20031;-78
2023/07/08 01:07:10;;;;;;;5.63;3.90;;;16.70;99.90;;;;;;5072532;28;20455;-78
2023/07/08 01:09:42;;;;;;;5.28;3.38;;;16.70;99.90;;;;;;5093438;28;20046;-78
2023/07/08 01:12:15;;;;;;;6.60;3.40;;;16.70;99.90;;;;;;5092593;28;20047;-78
2023/07/08 01:14:43;;;;;;;3.97;2.78;;;16.70;99.90;;;;;;5093763;28;20079;-78
2023/07/08 01:17:13;;;;;;;3.60;2.63;;;16.70;99.90;;;;;;5091926;28;20071;-78
2023/07/08 01:19:44;;;;;;;4.55;3.35;;;16.60;99.90;;;;;;5087031;28;20425;-78
2023/07/08 01:22:10;;;;;;;5.25;3.05;;;16.60;99.90;;;;;;5073291;28;20044;-78
2023/07/08 01:24:39;;;;;;;4.38;2.88;;;16.60;99.90;;;;;;5091307;28;20115;-78
2023/07/08 01:27:09;;;;;;;5.93;3.45;;;16.60;99.90;;;;;;5093115;28;20419;-79
2023/07/08 01:29:35;;;;;;;5.88;3.50;;;16.60;99.90;;;;;;5065427;28;20056;-78
2023/07/08 01:32:05;;;;;;;5.30;2.90;;;16.60;99.90;;;;;;5072796;28;20119;-78
2023/07/08 01:34:36;;;;;;;4.90;3.42;;;16.60;99.90;;;;;;5088120;28;20048;-78
2023/07/08 01:37:04;;;;;;;4.43;3.33;;;16.60;99.90;;;;;;5071541;28;20052;-78
2023/07/08 01:39:32;;;;;;;4.13;2.90;;;16.50;99.90;;;;;;5088607;28;20480;-79
2023/07/08 01:41:58;;;;;;;7.05;3.40;;;16.50;99.90;;;;;;5072101;28;20059;-77
2023/07/08 01:44:29;;;;;;;5.05;3.10;;;16.40;99.90;;;;;;5057033;28;20072;-77
2023/07/08 01:47:04;;;;;;;4.57;3.03;;;16.30;99.90;;;;;;5088705;28;20476;-78
2023/07/08 01:49:31;;;;;;;6.45;3.33;;;16.30;99.90;;;;;;5072541;28;20048;-79
2023/07/08 01:51:58;;;;;;;5.70;3.25;;;16.20;99.90;;;;;;5055046;28;20048;-79
2023/07/08 01:54:24;;;;;;;6.05;3.63;;;16.20;99.90;;;;;;5072320;28;20032;-78
2023/07/08 01:56:57;;;;;;;6.88;3.30;;;16.20;99.90;;;;;;5086652;28;20044;-79
2023/07/08 01:59:24;;;;;;;4.63;3.13;;;16.10;99.90;;;;;;5091666;28;20040;-79
2023/07/08 02:01:54;;;;;;;5.40;3.35;;;16.00;99.90;;;;;;5091917;28;20067;-78
2023/07/08 02:04:20;;;;;;;5.00;3.30;;;16.00;99.90;;;;;;5074831;28;20051;-79
2023/07/08 02:06:54;;;;;;;4.45;3.40;;;16.00;99.90;;;;;;5091774;28;20451;-78
2023/07/08 02:09:21;;;;;;;4.45;3.38;;;15.90;99.90;;;;;;5093109;28;20036;-78
2023/07/08 02:11:46;;;;;;;5.45;3.15;;;15.90;99.90;;;;;;5092473;28;20040;-79
2023/07/08 02:14:12;;;;;;;6.35;3.50;;;15.90;99.90;;;;;;5095344;28;20375;-78
2023/07/08 02:16:38;;;;;;;5.20;3.28;;;15.80;99.90;;;;;;5095735;28;20043;-78
2023/07/08 02:19:03;;;;;;;5.57;3.20;;;15.80;99.90;;;;;;5096350;28;20047;-78
2023/07/08 02:21:30;;;;;;;4.93;3.70;;;15.70;99.90;;;;;;5088610;28;20124;-78
2023/07/08 02:23:57;;;;;;;6.30;3.60;;;15.70;99.90;;;;;;5075360;28;20064;-78
2023/07/08 02:26:23;;;;;;;7.60;3.45;;;15.70;99.90;;;;;;5077441;28;20613;-79
2023/07/08 02:28:48;;;;;;;6.60;3.70;;;15.70;99.90;;;;;;5095208;28;20036;-78
2023/07/08 02:31:14;;;;;;;6.88;3.30;;;15.70;99.90;;;;;;5096660;28;20047;-79
2023/07/08 02:33:40;;;;;;;6.10;3.13;;;15.70;99.90;;;;;;5097867;28;20123;-79
2023/07/08 02:36:05;;;;;;;4.65;3.40;;;15.60;99.90;;;;;;5067526;28;20043;-78
2023/07/08 02:38:31;;;;;;;7.40;3.67;;;15.60;99.90;;;;;;5075436;28;20512;-77
2023/07/08 02:40:57;;;;;;;5.18;3.45;;;15.60;99.90;;;;;;5075964;28;20536;-77
2023/07/08 02:43:23;;;;;;;5.53;3.80;;;15.60;99.90;;;;;;5074559;28;20044;-77
2023/07/08 02:45:50;;;;;;;5.50;3.40;;;15.60;99.90;;;;;;5076816;28;20162;-78
2023/07/08 02:48:18;;;;;;;6.28;3.85;;;15.60;99.90;;;;;;5086692;28;20111;-79
2023/07/08 02:50:43;;;;;;;5.38;3.40;;;15.60;99.90;;;;;;5087949;28;20477;-78
2023/07/08 02:53:09;;;;;;;4.60;3.55;;;15.60;99.90;;;;;;5075692;28;20036;-77
2023/07/08 02:55:35;;;;;;;8.07;3.80;;;15.50;99.90;;;;;;5077150;28;20036;-78
2023/07/08 02:58:00;;;;;;;4.93;3.40;;;15.50;99.90;;;;;;5078966;28;20041;-78
2023/07/08 03:00:26;;;;;;;5.63;3.42;;;15.50;99.90;;;;;;5072328;28;20093;-78
2023/07/08 03:02:52;;;;;;;5.07;3.70;;;15.40;99.90;;;;;;5082934;28;20481;-77
2023/07/08 03:05:17;;;;;;;5.75;3.97;;;15.40;99.90;;;;;;5074264;28;20048;-77
2023/07/08 03:07:43;;;;;;;5.63;3.53;;;15.30;99.90;;;;;;5092486;28;20119;-77
2023/07/08 03:10:09;;;;;;;4.93;3.78;;;15.30;99.90;;;;;;5094658;28;20047;-77
2023/07/08 03:12:35;;;;;;;5.28;3.63;;;15.30;99.90;;;;;;5078976;28;20040;-77
2023/07/08 03:15:01;;;;;;;4.90;3.72;;;15.30;99.90;;;;;;5091657;28;20039;-78
2023/07/08 03:17:27;;;;;;;5.25;3.65;;;15.20;99.90;;;;;;5074822;28;20318;-77
2023/07/08 03:19:52;;;;;;;6.97;3.90;;;15.10;99.90;;;;;;5066087;28;20086;-78
2023/07/08 03:22:18;;;;;;;5.28;3.40;;;15.10;99.90;;;;;;5095271;28;20040;-77
2023/07/08 03:24:45;;;;;;;5.47;3.88;;;15.00;99.90;;;;;;5068856;28;20093;-77
2023/07/08 03:27:13;;;;;;;5.32;4.00;;;15.00;99.90;;;;;;5078796;28;20047;-77
2023/07/08 03:29:38;;;;;;;6.45;3.80;;;14.90;99.90;;;;;;5082182;28;20082;-76
2023/07/08 03:32:05;;;;;;;6.03;3.80;;;15.00;99.90;;;;;;5102232;28;20082;-78
2023/07/08 03:34:30;;;;;;;5.97;3.97;;;14.90;99.90;;;;;;5039704;28;20057;-78
2023/07/08 03:36:56;;;;;;;5.05;3.75;;;14.80;99.90;;;;;;5062677;28;20036;-77
2023/07/08 03:39:24;;;;;;;5.35;3.80;;;14.80;99.90;;;;;;5073900;28;20044;-77
2023/07/08 03:41:50;;;;;;;6.63;3.85;;;14.70;99.90;;;;;;5072672;28;20047;-77
2023/07/08 03:44:17;;;;;;;6.18;3.90;;;14.70;99.90;;;;;;5095040;28;20067;-77
2023/07/08 03:46:47;;;;;;;5.55;3.80;;;14.70;99.90;;;;;;5095301;28;20040;-77
2023/07/08 03:49:13;;;;;;;7.30;3.83;;;14.70;99.90;;;;;;5090628;28;20477;-78
2023/07/08 03:51:41;;;;;;;5.13;4.03;;;14.70;99.90;;;;;;5073769;28;20040;-77
2023/07/08 03:54:11;;;;;;;5.43;3.58;;;14.70;99.90;;;;;;5084840;28;20443;-78
2023/07/08 03:56:37;;;;;;;5.15;3.75;;;14.80;99.90;;;;;;5077476;28;20374;-77
2023/07/08 03:59:02;;;;;;;5.88;3.47;;;14.80;99.90;;;;;;5083277;28;20098;-77
2023/07/08 04:01:28;;;;;;;5.40;3.80;;;14.80;99.90;;;;;;5074549;28;20437;-77
2023/07/08 04:03:56;;;;;;;6.80;4.00;;;14.80;99.90;;;;;;5068050;28;20083;-78
2023/07/08 04:06:22;;;;;;;4.80;3.65;;;14.90;99.90;;;;;;5093623;28;20135;-78
2023/07/08 04:08:49;;;;;;;5.55;3.60;;;14.80;99.90;;;;;;5093309;28;20028;-77
2023/07/08 04:11:20;;;;;;;5.35;3.78;;;14.90;99.90;;;;;;5085329;28;20538;-77
2023/07/08 04:13:46;;;;;;;6.00;4.20;;;15.00;99.90;;;;;;5083742;28;20044;-77
2023/07/08 04:16:22;;;;;;;5.15;3.72;;;15.00;99.90;;;;;;5080361;28;20090;-77
2023/07/08 04:18:50;;;;;;;7.18;4.15;;;15.00;99.90;;;;;;5080560;28;20048;-77
2023/07/08 04:21:17;;;;;;;5.30;4.00;;;15.00;99.90;;;;;;5088126;28;20071;-78
2023/07/08 04:23:42;;;;;;;5.32;4.00;;;15.10;99.90;;;;;;5074075;28;20037;-78
2023/07/08 04:26:09;;;;;;;6.10;4.13;;;15.10;99.90;;;;;;5106654;28;20101;-77
2023/07/08 04:28:34;;;;;;;5.82;3.80;;;15.10;99.90;;;;;;5085556;28;20468;-78
2023/07/08 04:31:00;;;;;;;5.93;4.07;;;15.10;99.90;;;;;;5094041;28;20182;-78
2023/07/08 04:33:26;;;;;;;5.28;4.00;;;15.20;99.90;;;;;;5090183;28;20381;-78
2023/07/08 04:35:54;;;;;;;6.13;3.78;;;15.20;99.90;;;;;;5088687;28;20048;-76
2023/07/08 04:38:23;;;;;;;5.93;4.10;;;15.30;99.90;;;;;;5072987;28;20071;-76
2023/07/08 04:40:50;;;;;;;5.80;4.07;;;15.30;99.90;;;;;;5092727;28;20044;-76
2023/07/08 04:43:17;;;;;;;8.90;4.30;;;15.30;99.90;;;;;;5087456;28;20040;-77
2023/07/08 04:45:50;;;;;;;4.78;3.88;;;15.40;99.90;;;;;;5090034;28;20040;-76
2023/07/08 04:48:18;;;;;;;5.05;3.85;;;15.40;99.90;;;;;;5092576;28;20074;-77
2023/07/08 04:50:46;;;;;;;5.35;4.10;;;15.50;99.90;;;;;;5082297;28;20048;-77
2023/07/08 04:53:12;;;;;;;5.70;4.03;;;15.50;99.90;;;;;;5086559;28;20144;-76
2023/07/08 04:56:06;;;;;;;6.40;4.32;;;15.60;99.90;;;;;;5092874;28;20036;-77
2023/07/08 04:58:32;;;;;;;6.97;4.13;;;15.60;99.90;;;;;;5072994;28;20050;-78
2023/07/08 05:00:57;;;;;;;5.68;4.40;;;15.70;99.90;;;;;;5087786;28;20036;-78
2023/07/08 05:03:23;;;;;;;6.88;4.35;;;15.80;99.90;;;;;;5073293;28;20039;-75
2023/07/08 05:05:48;;;;;;;7.50;4.53;;;16.00;99.90;;;;;;5090571;28;20119;-77
2023/07/08 05:08:14;;;;;;;5.25;4.40;;;16.10;99.90;;;;;;5093504;28;20399;-77
2023/07/08 05:10:40;;;;;;;4.90;3.95;;;16.20;99.90;;;;;;5072769;28;20045;-77
2023/07/08 05:13:05;;;;;;;6.28;4.07;;;16.20;99.90;;;;;;5079826;28;20032;-77
2023/07/08 05:15:31;;;;;;;5.00;4.10;;;16.30;99.90;;;;;;5085975;28;20619;-76
2023/07/08 05:17:57;;;;;;;5.40;4.13;;;16.40;99.90;;;;;;5071752;28;20040;-77
2023/07/08 05:20:22;;;;;;;4.63;3.72;;;16.50;99.90;;;;;;5082873;28;20071;-76
2023/07/08 05:22:48;;;;;;;6.38;4.32;;;16.60;99.90;;;;;;5093292;28;20510;-77
2023/07/08 05:25:15;;;;;;;5.63;4.40;;;16.70;99.90;;;;;;5091824;28;20039;-77
2023/07/08 05:27:41;;;;;;;6.13;4.40;;;16.80;99.90;;;;;;5092502;28;20457;-77
2023/07/08 05:30:16;;;;;;;7.53;4.65;;;16.90;99.90;;;;;;5093205;28;20043;-79
2023/07/08 05:32:42;;;;;;;4.85;3.78;;;17.00;99.90;;;;;;5083769;28;20040;-77
2023/07/08 05:35:08;;;;;;;4.82;4.15;;;17.10;99.90;;;;;;5072918;28;20416;-78
2023/07/08 05:37:34;;;;;;;5.45;4.05;;;17.20;99.90;;;;;;5072699;28;20051;-77
2023/07/08 05:40:02;;;;;;;5.68;4.35;;;17.30;99.90;;;;;;5055306;28;20090;-78
2023/07/08 05:42:28;;;;;;;6.53;4.35;;;17.50;99.90;;;;;;5082556;28;20500;-78
2023/07/08 05:44:54;;;;;;;7.47;4.47;;;17.60;99.90;;;;;;5087304;28;20036;-78
2023/07/08 05:47:21;;;;;;;6.03;4.10;;;17.70;99.90;;;;;;5072532;28;20052;-78
2023/07/08 05:49:48;;;;;;;5.03;3.92;;;17.80;99.90;;;;;;5081397;28;20519;-78
2023/07/08 05:52:13;;;;;;;5.97;3.85;;;17.90;99.90;;;;;;5072414;28;20397;-78
2023/07/08 05:54:40;;;;;;;6.47;3.78;;;18.00;99.90;;;;;;5076296;28;20032;-79
2023/07/08 05:57:08;;;;;;;5.93;4.05;;;18.10;99.90;;;;;;5055002;28;20036;-78
2023/07/08 05:59:35;;;;;;;4.95;4.10;;;18.20;99.90;;;;;;5081872;28;20044;-79
2023/07/08 06:02:01;;;;;;;5.38;3.90;;;18.30;99.90;;;;;;5073452;28;20120;-78
2023/07/08 06:04:27;;;;;;;6.47;3.88;;;18.40;99.90;;;;;;5084872;28;20112;-76
2023/07/08 06:06:53;;;;;;;5.68;4.28;;;18.50;99.90;;;;;;5079503;28;20040;-76
2023/07/08 06:09:19;;;;;;;5.30;4.20;;;18.60;99.90;;;;;;5071448;28;20166;-77
2023/07/08 06:11:45;;;;;;;6.97;4.13;;;18.70;99.90;;;;;;5092725;28;20051;-78
2023/07/08 06:14:10;;;;;;;5.25;3.45;;;18.80;99.90;;;;;;5091444;28;20031;-77
2023/07/08 06:16:36;;;;;;;5.35;3.70;;;18.90;99.90;;;;;;5081049;28;20042;-76
2023/07/08 06:19:02;;;;;;;5.45;3.92;;;19.00;99.90;;;;;;5070522;28;20033;-77
2023/07/08 06:21:27;;;;;;;4.72;3.40;;;19.10;99.90;;;;;;5090077;28;20040;-77
2023/07/08 06:23:53;;;;;;;6.30;3.70;;;19.20;99.90;;;;;;5062869;28;20052;-77
2023/07/08 06:26:19;;;;;;;4.90;3.30;;;19.30;99.90;;;;;;5090587;28;20044;-77
2023/07/08 06:28:44;;;;;;;4.93;3.90;;;19.40;99.90;;;;;;5079915;28;20051;-65
2023/07/08 06:31:10;;;;;;;6.35;3.67;;;19.50;99.90;;;;;;5075878;28;20037;-66
2023/07/08 06:33:36;;;;;;;6.28;4.05;;;19.60;99.90;;;;;;5092301;28;20050;-66
2023/07/08 06:36:01;;;;;;;5.20;3.38;;;19.70;99.90;;;;;;5073301;28;20048;-65
2023/07/08 06:38:27;;;;;;;5.22;3.72;;;19.80;99.90;;;;;;5074648;28;20063;-66
2023/07/08 06:40:53;;;;;;;5.47;3.40;;;19.90;99.90;;;;;;5071668;28;20037;-66
2023/07/08 06:43:18;;;;;;;5.20;3.55;;;20.00;99.90;;;;;;5078068;28;20418;-66
2023/07/08 06:45:44;;;;;;;6.00;3.33;;;20.10;99.90;;;;;;5072365;28;20040;-65
2023/07/08 06:48:10;;;;;;;5.03;3.20;;;20.20;99.90;;;;;;5082792;28;20484;-66
2023/07/08 06:50:36;;;;;;;5.53;3.38;;;20.30;99.90;;;;;;5077141;28;20484;-66
2023/07/08 06:53:01;;;;;;;4.55;3.40;;;20.40;99.90;;;;;;5071860;28;20078;-66
2023/07/08 06:55:28;;;;;;;4.80;3.60;;;20.50;99.90;;;;;;5072123;28;20109;-66
2023/07/08 06:57:54;;;;;;;5.47;3.70;;;20.60;99.90;;;;;;5072156;28;20376;-66
2023/07/08 07:00:20;;;;;;;3.78;2.92;;;20.70;99.90;;;;;;5075111;28;20048;-66
2023/07/08 07:02:46;;;;;;;5.15;3.30;;;20.80;99.90;;;;;;5092396;28;20478;-66
2023/07/08 07:05:11;;;;;;;5.78;3.42;;;21.00;99.90;;;;;;5083876;28;20043;-66
2023/07/08 07:07:37;;;;;;;4.63;3.20;;;21.10;99.90;;;;;;5075445;28;20119;-66
2023/07/08 07:10:03;;;;;;;5.32;3.35;;;21.20;99.90;;;;;;5074359;28;20051;-66
2023/07/08 07:12:29;;;;;;;4.78;3.30;;;21.30;99.90;;;;;;5080547;28;20089;-66
2023/07/08 07:14:55;;;;;;;4.20;3.00;;;21.40;99.90;;;;;;5075533;28;20117;-67
2023/07/08 07:17:22;;;;;;;4.70;3.35;;;21.40;99.90;;;;;;5075347;28;20040;-66
2023/07/08 07:19:48;;;;;;;6.40;3.00;;;21.50;99.90;;;;;;5076855;28;20040;-66
2023/07/08 07:22:14;;;;;;;4.43;3.38;;;21.70;99.90;;;;;;5088564;28;20119;-67
2023/07/08 07:24:40;;;;;;;5.15;3.25;;;21.80;99.90;;;;;;5077355;28;20476;-67
2023/07/08 07:27:07;;;;;;;3.65;2.83;;;21.90;99.90;;;;;;5080120;28;20093;-66
2023/07/08 07:29:48;;;;;;;6.13;3.45;;;22.10;99.90;;;;;;5095413;28;20048;-66
2023/07/08 07:32:15;;;;;;;5.75;3.08;;;22.20;99.90;;;;;;5081453;28;20066;-66
2023/07/08 07:34:41;;;;;;;4.95;3.55;;;22.30;99.90;;;;;;5073482;28;20431;-66
2023/07/08 07:37:12;;;;;;;6.28;3.65;;;22.40;99.90;;;;;;5057212;28;20045;-66
2023/07/08 07:39:37;;;;;;;4.43;3.10;;;22.50;99.90;;;;;;5065434;28;20587;-66
2023/07/08 07:42:03;;;;;;;3.95;2.90;;;22.60;99.90;;;;;;5062914;28;20068;-67
2023/07/08 07:44:29;;;;;;;4.50;3.13;;;22.70;99.90;;;;;;5061533;28;20065;-68
2023/07/08 07:46:54;;;;;;;4.20;3.22;;;22.80;99.90;;;;;;5074226;28;20037;-68
2023/07/08 07:49:21;;;;;;;4.95;3.03;;;22.80;99.90;;;;;;5066809;28;20037;-68
2023/07/08 07:51:47;;;;;;;3.40;2.67;;;22.90;99.90;;;;;;5058753;28;20370;-67
2023/07/08 07:54:13;;;;;;;5.32;3.40;;;23.00;99.90;;;;;;5061939;28;20040;-67
2023/07/08 07:56:39;;;;;;;4.35;2.92;;;23.10;99.90;;;;;;5071420;28;20378;-67
2023/07/08 07:59:04;;;;;;;4.82;3.45;;;23.20;99.90;;;;;;5072711;28;20058;-68
2023/07/08 08:01:30;;;;;;;4.40;3.15;;;23.30;99.90;;;;;;5059819;28;20138;-65
2023/07/08 08:03:56;;;;;;;4.20;2.80;;;23.40;99.90;;;;;;5070175;28;20492;-66
2023/07/08 08:06:21;;;;;;;4.30;2.92;;;23.50;99.90;;;;;;5073131;28;20036;-65
2023/07/08 08:08:48;;;;;;;4.30;3.00;;;23.60;99.90;;;;;;5072866;28;20083;-65
2023/07/08 08:11:15;;;;;;;6.13;3.10;;;23.70;99.90;;;;;;5072474;28;20051;-66
2023/07/08 08:13:41;;;;;;;4.03;2.95;;;23.90;99.90;;;;;;5073622;28;20040;-64
2023/07/08 08:16:07;;;;;;;3.70;2.70;;;23.90;99.90;;;;;;5073850;28;20115;-65
2023/07/08 08:18:32;;;;;;;3.10;2.50;;;24.00;99.90;;;;;;5072424;28;20047;-65
2023/07/08 08:20:58;;;;;;;4.10;2.65;;;24.20;99.90;;;;;;5066378;28;20040;-66
2023/07/08 08:23:24;;;;;;;3.17;2.47;;;24.30;99.90;;;;;;5073351;28;20465;-66
2023/07/08 08:25:52;;;;;;;3.10;2.40;;;24.40;99.90;;;;;;5073558;28;20048;-65
2023/07/08 08:28:18;;;;;;;4.20;2.95;;;24.50;99.90;;;;;;5072274;28;20056;-66
2023/07/08 08:30:50;;;;;;;4.25;2.67;;;24.60;99.90;;;;;;5055867;28;20048;-65
2023/07/08 08:33:16;;;;;;;4.50;2.55;;;24.70;99.90;;;;;;5068016;28;20102;-65
2023/07/08 08:35:43;;;;;;;3.72;2.70;;;24.80;99.90;;;;;;5071738;28;20127;-66
2023/07/08 08:38:08;;;;;;;4.85;2.63;;;24.90;99.90;;;;;;5071390;28;20601;-66
2023/07/08 08:40:34;;;;;;;3.20;2.42;;;25.00;99.90;;;;;;5071841;28;20035;-67
2023/07/08 08:43:09;;;;;;;3.53;2.60;;;25.10;99.90;;;;;;5071634;28;20131;-67
2023/07/08 08:45:43;;;;;;;4.65;2.72;;;25.20;99.90;;;;;;5071745;28;20036;-67
2023/07/08 08:48:13;;;;;;;2.97;2.40;;;25.30;99.90;;;;;;5071070;28;20426;-66
2023/07/08 08:50:50;;;;;;;3.45;2.53;;;25.40;99.90;;;;;;5073020;28;20102;-65
2023/07/08 08:53:18;;;;;;;3.30;2.50;;;25.60;99.90;;;;;;5072748;28;20552;-66
2023/07/08 08:55:51;;;;;;;3.28;2.50;;;25.70;99.90;;;;;;5072425;28;20047;-65
2023/07/08 08:58:38;;;;;;;3.35;2.80;;;25.70;99.90;;;;;;5072725;28;20105;-65
2023/07/08 09:01:16;;;;;;;4.65;2.63;;;25.80;99.90;;;;;;5072716;28;20044;-65
2023/07/08 09:04:19;;;;;;;3.50;2.30;;;25.90;99.90;;;;;;5069013;28;20041;-66
2023/07/08 09:06:45;;;;;;;4.10;2.70;;;26.00;99.90;;;;;;5059285;28;20439;-65
2023/07/08 09:09:36;;;;;;;3.97;2.80;;;26.20;99.90;;;;;;5072147;28;20040;-66
2023/07/08 09:12:11;;;;;;;3.45;2.30;;;26.30;99.90;;;;;;5072239;28;20397;-66
2023/07/08 09:14:38;;;;;;;4.93;2.65;;;26.50;99.90;;;;;;5072783;28;20042;-65
2023/07/08 09:17:27;;;;;;;3.67;2.55;;;26.60;99.90;;;;;;5072488;28;20041;-65
2023/07/08 09:20:03;;;;;;;4.95;2.60;;;26.70;99.90;;;;;;5071582;28;20127;-66
2023/07/08 09:23:03;;;;;;;3.97;2.53;;;26.80;99.90;;;;;;5071790;28;20041;-66
2023/07/08 09:25:52;;;;;;;5.13;2.88;;;27.00;99.90;;;;;;5072205;28;20032;-65
2023/07/08 09:28:18;;;;;;;4.20;2.42;;;27.20;99.90;;;;;;5063698;28;20038;-67
2023/07/08 09:30:53;;;;;;;4.75;2.55;;;27.20;99.90;;;;;;5062910;28;20047;-67
2023/07/08 09:33:19;;;;;;;3.90;2.70;;;27.30;99.90;;;;;;5058198;28;20048;-67
2023/07/08 09:35:48;;;;;;;5.03;2.50;;;27.30;99.90;;;;;;5069748;28;20036;-66
2023/07/08 09:38:21;;;;;;;4.57;2.35;;;27.30;99.90;;;;;;5068465;28;20481;-66
2023/07/08 09:40:56;;;;;;;4.10;2.50;;;27.40;99.90;;;;;;5072235;28;20048;-66
2023/07/08 09:43:28;;;;;;;3.63;2.80;;;27.50;99.90;;;;;;5066668;28;20054;-65
2023/07/08 09:45:58;;;;;;;4.75;2.35;;;27.70;99.90;;;;;;5072341;28;20055;-66
2023/07/08 09:48:27;;;;;;;6.22;2.47;;;27.80;99.90;;;;;;5071300;28;20044;-66
2023/07/08 09:50:55;;;;;;;3.60;2.30;;;27.90;99.90;;;;;;5071876;28;20119;-66
2023/07/08 09:53:21;;;;;;;4.85;2.55;;;27.90;99.90;;;;;;5072176;28;20411;-66
2023/07/08 09:55:47;;;;;;;3.15;2.50;;;28.00;99.90;;;;;;5071404;28;20093;-65
2023/07/08 09:58:23;;;;;;;4.80;2.38;;;28.20;99.90;;;;;;5071758;28;20499;-66
2023/07/08 10:00:54;;;;;;;3.65;2.40;;;28.40;99.90;;;;;;5071224;28;20079;-65
2023/07/08 10:03:27;;;;;;;3.58;2.40;;;28.40;99.90;;;;;;5071520;28;20037;-65
2023/07/08 10:05:57;;;;;;;3.65;2.80;;;28.50;99.90;;;;;;5071764;28;20064;-66
2023/07/08 10:08:24;;;;;;;3.15;2.30;;;28.40;99.90;;;;;;5071630;28;20071;-65
2023/07/08 10:11:00;;;;;;;3.55;2.53;;;28.50;99.90;;;;;;5071405;28;20047;-70
2023/07/08 10:13:45;;;;;;;3.45;2.50;;;28.50;99.90;;;;;;5072153;28;20040;-67
2023/07/08 10:16:27;;;;;;;3.40;2.58;;;28.70;99.90;;;;;;5063213;28;20377;-68
2023/07/08 10:18:53;;;;;;;3.20;2.20;;;28.80;99.90;;;;;;5070782;28;20079;-66
2023/07/08 10:21:43;;;;;;;4.25;2.30;;;29.00;99.90;;;;;;5071880;28;20072;-66
2023/07/08 10:24:29;;;;;;;3.30;2.17;;;29.10;99.90;;;;;;5070682;28;20051;-66
2023/07/08 10:27:17;;;;;;;4.05;2.55;;;29.20;99.90;;;;;;5055234;28;20377;-64
2023/07/08 10:30:13;;;;;;;3.80;2.58;;;29.40;99.90;;;;;;5066932;28;20036;-65
2023/07/08 10:32:56;;;;;;;4.28;2.70;;;29.60;99.90;;;;;;5070096;28;20041;-65
2023/07/08 10:35:29;;;;;;;3.75;2.40;;;29.70;99.90;;;;;;5062093;28;20111;-65
2023/07/08 10:38:09;;;;;;;3.60;2.65;;;29.70;99.90;;;;;;5064495;28;20053;-67
2023/07/08 10:40:48;;;;;;;3.67;2.42;;;29.90;99.90;;;;;;5074323;28;20043;-66
2023/07/08 10:43:52;;;;;;;3.85;2.50;;;30.10;99.90;;;;;;5075839;28;20043;-65
2023/07/08 10:46:39;;;;;;;4.05;2.80;;;30.20;99.90;;;;;;5074594;28;20051;-65
2023/07/08 10:49:37;;;;;;;3.80;2.40;;;30.30;99.90;;;;;;5074602;28;20127;-64
2023/07/08 10:52:31;;;;;;;3.78;2.75;;;30.40;99.90;;;;;;5053935;28;20128;-65
2023/07/08 10:55:43;;;;;;;2.95;2.08;;;30.50;99.90;;;;;;5068589;28;20036;-65
2023/07/08 10:58:30;;;;;;;3.42;2.28;;;30.60;99.90;;;;;;5068393;28;20431;-65
2023/07/08 11:01:06;;;;;;;2.88;2.08;;;30.60;99.90;;;;;;5074885;28;20419;-64
2023/07/08 11:03:38;;;;;;;3.47;2.35;;;30.70;99.90;;;;;;5074796;28;20039;-64
2023/07/08 11:06:45;;;;;;;4.60;2.50;;;31.00;99.90;;;;;;5075051;28;20373;-64
2023/07/08 11:09:18;;;;;;;3.33;2.42;;;31.10;99.90;;;;;;5066939;28;20488;-67
2023/07/08 11:12:05;;;;;;;4.18;2.42;;;31.20;99.90;;;;;;5074900;28;20480;-67
2023/07/08 11:14:49;;;;;;;4.53;2.60;;;31.40;99.90;;;;;;5074896;28;20047;-65
2023/07/08 11:17:18;;;;;;;3.58;2.28;;;31.50;99.90;;;;;;5059774;28;20076;-65
2023/07/08 11:20:11;;;;;;;3.25;2.60;;;31.50;99.90;;;;;;5072900;28;20083;-65
2023/07/08 11:22:50;;;;;;;3.38;2.65;;;31.60;99.90;;;;;;5056833;28;20127;-65
2023/07/08 11:25:19;;;;;;;3.60;2.55;;;31.70;99.90;;;;;;5065363;28;20489;-66
2023/07/08 11:27:48;;;;;;;2.88;2.47;;;31.70;99.90;;;;;;5074517;28;20599;-66
2023/07/08 11:30:19;;;;;;;3.65;2.22;;;31.80;99.90;;;;;;5060970;28;20047;-66
2023/07/08 11:32:50;;;;;;;3.47;2.88;;;31.80;99.90;;;;;;5071655;28;20051;-67
2023/07/08 11:35:34;;;;;;;4.25;2.53;;;31.90;99.90;;;;;;5066702;28;20063;-66
2023/07/08 11:38:02;;;;;;;5.43;2.80;;;32.00;99.90;;;;;;5068594;28;20493;-64
2023/07/08 11:40:28;;;;;;;5.60;2.60;;;32.10;99.90;;;;;;5073470;28;20036;-64
2023/07/08 11:43:06;;;;;;;3.13;2.47;;;32.20;99.90;;;;;;5056997;28;20047;-64
2023/07/08 11:45:42;;;;;;;3.47;2.85;;;32.30;99.90;;;;;;5073677;28;20051;-66
2023/07/08 11:48:26;;;;;;;4.97;2.28;;;32.40;99.90;;;;;;5072530;28;20102;-65
2023/07/08 11:50:53;;;;;;;2.92;2.38;;;32.40;99.90;;;;;;5072163;28;20068;-66
2023/07/08 11:53:28;;;;;;;4.18;2.60;;;32.40;99.90;;;;;;5073802;28;20102;-66
2023/07/08 11:55:58;;;;;;;;;;;32.50;99.90;;;;;;5074124;28;20119;-66
2023/07/08 11:58:29;;;;;;;3.55;2.78;;;32.50;99.90;;;;;;5073508;28;20323;-66
2023/07/08 12:01:34;;;;;;;4.65;2.72;;;32.60;99.90;;;;;;5073183;28;20380;-66
2023/07/08 12:04:36;;;;;;;3.50;2.90;;;32.70;99.90;;;;;;5072816;28;20044;-66
2023/07/08 12:07:20;;;;;;;4.05;3.08;;;32.90;99.90;;;;;;5056655;28;20370;-66
2023/07/08 12:09:49;;;;;;;4.55;2.80;;;32.90;99.90;;;;;;5072851;28;20487;-66
2023/07/08 12:12:24;;;;;;;2.83;2.45;;;33.00;99.90;;;;;;5074170;28;20068;-66
2023/07/08 12:14:58;;;;;;;3.33;2.65;;;33.20;99.90;;;;;;5073787;28;20119;-65
2023/07/08 12:17:24;;;;;;;3.90;2.72;;;33.20;99.90;;;;;;5073392;28;20040;-65
2023/07/08 12:19:51;;;;;;;5.28;3.22;;;33.30;99.90;;;;;;5064434;28;20045;-66
2023/07/08 12:22:18;;;;;;;4.78;2.78;;;33.40;99.90;;;;;;5065398;28;20508;-65
2023/07/08 12:24:44;;;;;;;7.13;2.97;;;33.50;99.90;;;;;;5073011;28;20480;-66
2023/07/08 12:27:10;;;;;;;4.10;2.90;;;33.60;99.90;;;;;;5066615;28;20051;-66
2023/07/08 12:29:37;;;;;;;4.70;2.80;;;33.60;99.90;;;;;;5067491;28;20116;-65
2023/07/08 12:32:03;;;;;;;7.68;2.78;;;33.60;99.90;;;;;;5061298;28;20127;-66
2023/07/08 12:34:29;;;;;;;3.60;2.85;;;33.60;99.90;;;;;;5072300;28;20048;-66
2023/07/08 12:36:55;;;;;;;4.28;3.15;;;33.60;99.90;;;;;;5072734;28;20055;-65
2023/07/08 12:39:21;;;;;;;3.80;2.90;;;33.70;99.90;;;;;;5065020;28;20051;-65
2023/07/08 12:41:48;;;;;;;3.38;2.72;;;33.80;99.90;;;;;;5072041;28;20044;-66
2023/07/08 12:44:23;;;;;;;3.95;2.97;;;33.80;99.90;;;;;;5071573;28;20060;-66
2023/07/08 12:46:53;;;;;;;3.88;2.78;;;33.80;99.90;;;;;;5070819;28;20098;-67
2023/07/08 12:49:20;;;;;;;8.50;3.53;;;33.70;99.90;;;;;;5071250;28;20496;-65
2023/07/08 12:51:47;;;;;;;3.85;3.03;;;33.70;99.90;;;;;;5072052;28;20369;-65
2023/07/08 12:54:13;;;;;;;4.72;3.10;;;33.60;99.90;;;;;;5072471;28;20075;-65
2023/07/08 12:56:43;;;;;;;3.83;2.70;;;33.50;99.90;;;;;;5072198;28;20442;-65
2023/07/08 12:59:22;;;;;;;3.42;2.60;;;33.40;99.90;;;;;;5070491;28;20059;-66
2023/07/08 13:01:50;;;;;;;5.13;2.90;;;33.30;99.90;;;;;;5071702;28;20427;-64
2023/07/08 13:04:17;;;;;;;4.60;3.22;;;33.30;99.90;;;;;;5072210;28;20539;-64